sensor_id;sensor_type;location;lat;lon;timestamp;pressure;altitude;pressure_sealevel;temperature;humidity
76853;BME280;65825;52.232;10.566;2023-02-18T00:01:53;101012.88;;;6.35;68.47
76853;BME280;65825;52.232;10.566;2023-02-18T00:04:19;101001.50;;;6.33;68.36
76853;BME280;65825;52.232;10.566;2023-02-18T00:06:44;100989.34;;;6.29;68.15
76853;BME280;65825;52.232;10.566;2023-02-18T00:09:10;100988.50;;;6.24;68.46
76853;BME280;65825;52.232;10.566;2023-02-18T00:11:36;100984.16;;;6.23;68.25
76853;BME280;65825;52.232;10.566;2023-02-18T00:14:06;100992.16;;;6.08;69.82
76853;BME280;65825;52.232;10.566;2023-02-18T00:16:32;100982.50;;;6.12;68.96
76853;BME280;65825;52.232;10.566;2023-02-18T00:19:00;100975.53;;;6.09;69.24
76853;BME280;65825;52.232;10.566;2023-02-18T00:21:27;100978.16;;;6.09;69.85
76853;BME280;65825;52.232;10.566;2023-02-18T00:23:52;100979.00;;;6.10;69.18
76853;BME280;65825;52.232;10.566;2023-02-18T00:26:19;100965.13;;;6.03;69.70
76853;BME280;65825;52.232;10.566;2023-02-18T00:28:45;100968.59;;;6.04;69.47
76853;BME280;65825;52.232;10.566;2023-02-18T00:31:15;100969.47;;;6.04;69.37
76853;BME280;65825;52.232;10.566;2023-02-18T00:33:41;100971.13;;;6.13;69.45
76853;BME280;65825;52.232;10.566;2023-02-18T00:36:09;100971.19;;;6.05;69.65
76853;BME280;65825;52.232;10.566;2023-02-18T00:38:35;100974.66;;;6.09;69.66
76853;BME280;65825;52.232;10.566;2023-02-18T00:41:00;100981.69;;;6.07;69.98
76853;BME280;65825;52.232;10.566;2023-02-18T00:43:26;100964.25;;;6.01;70.10
76853;BME280;65825;52.232;10.566;2023-02-18T00:45:51;100974.78;;;5.97;70.54
76853;BME280;65825;52.232;10.566;2023-02-18T00:48:17;100964.28;;;6.00;69.75
76853;BME280;65825;52.232;10.566;2023-02-18T00:50:43;100969.53;;;5.98;70.17
76853;BME280;65825;52.232;10.566;2023-02-18T00:53:08;100972.16;;;6.00;69.97
76853;BME280;65825;52.232;10.566;2023-02-18T00:55:39;100974.72;;;6.04;69.60
76853;BME280;65825;52.232;10.566;2023-02-18T00:58:04;100979.19;;;5.95;69.73
76853;BME280;65825;52.232;10.566;2023-02-18T01:00:30;100980.91;;;5.96;69.87
76853;BME280;65825;52.232;10.566;2023-02-18T01:02:55;100979.25;;;5.86;70.68
76853;BME280;65825;52.232;10.566;2023-02-18T01:05:21;100987.06;;;5.89;70.80
76853;BME280;65825;52.232;10.566;2023-02-18T01:07:46;100986.16;;;5.91;69.94
76853;BME280;65825;52.232;10.566;2023-02-18T01:10:12;100979.19;;;5.93;70.28
76853;BME280;65825;52.232;10.566;2023-02-18T01:12:37;100980.97;;;5.87;70.29
76853;BME280;65825;52.232;10.566;2023-02-18T01:15:04;100982.69;;;5.92;69.75
76853;BME280;65825;52.232;10.566;2023-02-18T01:17:30;100980.03;;;5.94;70.22
76853;BME280;65825;52.232;10.566;2023-02-18T01:19:56;100980.91;;;5.96;69.60
76853;BME280;65825;52.232;10.566;2023-02-18T01:22:21;100983.53;;;5.97;70.03
76853;BME280;65825;52.232;10.566;2023-02-18T01:24:46;100993.09;;;6.00;70.10
76853;BME280;65825;52.232;10.566;2023-02-18T01:27:12;100988.63;;;6.11;69.72
76853;BME280;65825;52.232;10.566;2023-02-18T01:29:37;100989.47;;;6.16;69.51
76853;BME280;65825;52.232;10.566;2023-02-18T01:32:02;100979.81;;;6.19;70.01
76853;BME280;65825;52.232;10.566;2023-02-18T01:34:27;100977.97;;;6.27;70.08
76853;BME280;65825;52.232;10.566;2023-02-18T01:36:54;100981.41;;;6.32;69.92
76853;BME280;65825;52.232;10.566;2023-02-18T01:39:19;100974.44;;;6.34;69.50
76853;BME280;65825;52.232;10.566;2023-02-18T01:41:47;100963.88;;;6.40;69.05
76853;BME280;65825;52.232;10.566;2023-02-18T01:44:18;100971.69;;;6.45;68.87
76853;BME280;65825;52.232;10.566;2023-02-18T01:46:45;100966.34;;;6.52;69.41
76853;BME280;65825;52.232;10.566;2023-02-18T01:49:15;100967.19;;;6.57;68.57
76853;BME280;65825;52.232;10.566;2023-02-18T01:51:48;100965.44;;;6.58;68.89
76853;BME280;65825;52.232;10.566;2023-02-18T01:54:21;100961.00;;;6.63;69.09
76853;BME280;65825;52.232;10.566;2023-02-18T01:56:51;100967.97;;;6.64;68.87
76853;BME280;65825;52.232;10.566;2023-02-18T01:59:28;100963.56;;;6.67;68.63
76853;BME280;65825;52.232;10.566;2023-02-18T02:01:54;100969.81;;;6.56;69.38
76853;BME280;65825;52.232;10.566;2023-02-18T02:04:20;100960.97;;;6.64;69.10
76853;BME280;65825;52.232;10.566;2023-02-18T02:06:46;100953.22;;;6.57;69.59
76853;BME280;65825;52.232;10.566;2023-02-18T02:09:13;100947.91;;;6.60;69.61
76853;BME280;65825;52.232;10.566;2023-02-18T02:17:10;100955.69;;;6.69;69.23
76853;BME280;65825;52.232;10.566;2023-02-18T02:19:43;100952.91;;;6.81;68.62
76853;BME280;65825;52.232;10.566;2023-02-18T02:25:07;100963.47;;;6.76;69.16
76853;BME280;65825;52.232;10.566;2023-02-18T02:38:43;100943.47;;;6.66;69.76
76853;BME280;65825;52.232;10.566;2023-02-18T02:44:18;100936.59;;;6.56;69.93
76853;BME280;65825;52.232;10.566;2023-02-18T02:46:46;100939.16;;;6.61;69.50
76853;BME280;65825;52.232;10.566;2023-02-18T02:49:27;100940.94;;;6.59;70.33
76853;BME280;65825;52.232;10.566;2023-02-18T02:52:02;100945.22;;;6.66;69.83
76853;BME280;65825;52.232;10.566;2023-02-18T02:54:30;100946.84;;;6.76;69.37
76853;BME280;65825;52.232;10.566;2023-02-18T02:59:40;100938.88;;;6.83;68.99
76853;BME280;65825;52.232;10.566;2023-02-18T03:04:57;100946.00;;;6.75;69.33
76853;BME280;65825;52.232;10.566;2023-02-18T03:10:25;100921.41;;;6.81;69.31
76853;BME280;65825;52.232;10.566;2023-02-18T03:13:06;100923.16;;;6.82;70.58
76853;BME280;65825;52.232;10.566;2023-02-18T03:18:19;100922.22;;;6.87;70.36
76853;BME280;65825;52.232;10.566;2023-02-18T03:20:54;100905.50;;;6.93;70.16
76853;BME280;65825;52.232;10.566;2023-02-18T03:23:25;100911.63;;;6.93;70.74
76853;BME280;65825;52.232;10.566;2023-02-18T03:25:51;100914.06;;;7.07;70.31
76853;BME280;65825;52.232;10.566;2023-02-18T03:28:19;100916.59;;;7.14;70.71
76853;BME280;65825;52.232;10.566;2023-02-18T03:33:14;100907.91;;;7.11;71.02
76853;BME280;65825;52.232;10.566;2023-02-18T03:35:42;100905.16;;;7.18;71.67
76853;BME280;65825;52.232;10.566;2023-02-18T03:38:12;100898.91;;;7.25;71.16
76853;BME280;65825;52.232;10.566;2023-02-18T03:40:39;100899.00;;;7.21;72.23
76853;BME280;65825;52.232;10.566;2023-02-18T03:43:05;100898.09;;;7.22;72.23
76853;BME280;65825;52.232;10.566;2023-02-18T03:45:30;100895.44;;;7.25;72.27
76853;BME280;65825;52.232;10.566;2023-02-18T03:47:55;100891.84;;;7.30;72.50
76853;BME280;65825;52.232;10.566;2023-02-18T03:50:21;100891.75;;;7.36;72.19
76853;BME280;65825;52.232;10.566;2023-02-18T03:52:46;100883.88;;;7.36;72.81
76853;BME280;65825;52.232;10.566;2023-02-18T03:55:11;100890.94;;;7.33;72.96
76853;BME280;65825;52.232;10.566;2023-02-18T03:57:37;100882.22;;;7.31;73.21
76853;BME280;65825;52.232;10.566;2023-02-18T04:00:03;100890.94;;;7.31;73.52
76853;BME280;65825;52.232;10.566;2023-02-18T04:02:30;100888.31;;;7.33;72.86
76853;BME280;65825;52.232;10.566;2023-02-18T04:04:56;100889.84;;;7.47;72.08
76853;BME280;65825;52.232;10.566;2023-02-18T04:07:21;100888.03;;;7.51;71.76
76853;BME280;65825;52.232;10.566;2023-02-18T04:09:46;100892.28;;;7.58;71.80
76853;BME280;65825;52.232;10.566;2023-02-18T04:12:11;100877.44;;;7.55;72.53
76853;BME280;65825;52.232;10.566;2023-02-18T04:14:37;100878.34;;;7.53;72.63
76853;BME280;65825;52.232;10.566;2023-02-18T04:17:02;100879.22;;;7.53;72.46
76853;BME280;65825;52.232;10.566;2023-02-18T04:19:27;100877.31;;;7.61;72.65
76853;BME280;65825;52.232;10.566;2023-02-18T04:21:53;100875.59;;;7.62;73.14
76853;BME280;65825;52.232;10.566;2023-02-18T04:24:18;100870.38;;;7.57;73.30
76853;BME280;65825;52.232;10.566;2023-02-18T04:26:43;100871.38;;;7.50;74.05
76853;BME280;65825;52.232;10.566;2023-02-18T04:29:08;100872.38;;;7.43;74.94
76853;BME280;65825;52.232;10.566;2023-02-18T04:31:34;100868.78;;;7.49;74.72
76853;BME280;65825;52.232;10.566;2023-02-18T04:33:59;100873.94;;;7.55;74.05
76853;BME280;65825;52.232;10.566;2023-02-18T04:36:24;100871.41;;;7.49;75.44
76853;BME280;65825;52.232;10.566;2023-02-18T04:38:49;100868.88;;;7.43;75.31
76853;BME280;65825;52.232;10.566;2023-02-18T04:41:15;100866.13;;;7.50;76.15
76853;BME280;65825;52.232;10.566;2023-02-18T04:43:40;100872.97;;;7.60;75.11
76853;BME280;65825;52.232;10.566;2023-02-18T04:46:05;100875.69;;;7.56;76.26
76853;BME280;65825;52.232;10.566;2023-02-18T04:48:31;100864.06;;;7.69;75.36
76853;BME280;65825;52.232;10.566;2023-02-18T04:50:56;100864.16;;;7.64;76.67
76853;BME280;65825;52.232;10.566;2023-02-18T04:53:21;100865.91;;;7.64;77.13
76853;BME280;65825;52.232;10.566;2023-02-18T04:55:50;100865.13;;;7.57;78.98
76853;BME280;65825;52.232;10.566;2023-02-18T04:58:16;100859.72;;;7.68;78.16
76853;BME280;65825;52.232;10.566;2023-02-18T05:00:42;100864.16;;;7.64;79.41
76853;BME280;65825;52.232;10.566;2023-02-18T05:03:07;100859.81;;;7.62;79.91
76853;BME280;65825;52.232;10.566;2023-02-18T05:05:32;100849.44;;;7.54;80.50
76853;BME280;65825;52.232;10.566;2023-02-18T05:07:57;100844.88;;;7.64;80.29
76853;BME280;65825;52.232;10.566;2023-02-18T05:10:23;100856.25;;;7.66;80.44
76853;BME280;65825;52.232;10.566;2023-02-18T05:12:48;100840.53;;;7.63;81.82
76853;BME280;65825;52.232;10.566;2023-02-18T05:15:13;100841.09;;;7.80;81.68
76853;BME280;65825;52.232;10.566;2023-02-18T05:17:39;100829.13;;;7.62;82.83
76853;BME280;65825;52.232;10.566;2023-02-18T05:20:05;100822.19;;;7.60;82.80
76853;BME280;65825;52.232;10.566;2023-02-18T05:22:30;100823.25;;;7.50;84.55
76853;BME280;65825;52.232;10.566;2023-02-18T05:24:56;100813.56;;;7.53;84.04
76853;BME280;65825;52.232;10.566;2023-02-18T05:27:21;100810.81;;;7.59;83.86
76853;BME280;65825;52.232;10.566;2023-02-18T05:29:46;100802.44;;;7.36;84.87
76853;BME280;65825;52.232;10.566;2023-02-18T05:32:11;100800.09;;;7.21;86.43
76853;BME280;65825;52.232;10.566;2023-02-18T05:34:37;100804.28;;;7.31;85.87
76853;BME280;65825;52.232;10.566;2023-02-18T05:37:02;100795.53;;;7.32;86.98
76853;BME280;65825;52.232;10.566;2023-02-18T05:39:27;100786.53;;;7.47;86.21
76853;BME280;65825;52.232;10.566;2023-02-18T05:41:52;100790.31;;;7.31;86.82
76853;BME280;65825;52.232;10.566;2023-02-18T05:44:18;100785.06;;;7.31;87.22
76853;BME280;65825;52.232;10.566;2023-02-18T05:47:06;100773.53;;;7.39;86.69
76853;BME280;65825;52.232;10.566;2023-02-18T05:49:32;100769.88;;;7.46;86.83
76853;BME280;65825;52.232;10.566;2023-02-18T05:51:59;100770.81;;;7.44;87.59
76853;BME280;65825;52.232;10.566;2023-02-18T05:54:25;100769.19;;;7.38;87.98
76853;BME280;65825;52.232;10.566;2023-02-18T05:56:51;100763.97;;;7.35;87.85
76853;BME280;65825;52.232;10.566;2023-02-18T05:59:17;100773.25;;;7.56;87.05
76853;BME280;65825;52.232;10.566;2023-02-18T06:05:04;100759.44;;;7.45;88.20
76853;BME280;65825;52.232;10.566;2023-02-18T06:07:30;100761.84;;;7.57;87.03
76853;BME280;65825;52.232;10.566;2023-02-18T06:09:55;100754.72;;;7.62;87.02
76853;BME280;65825;52.232;10.566;2023-02-18T06:12:20;100742.06;;;7.36;89.20
76853;BME280;65825;52.232;10.566;2023-02-18T06:14:46;100738.50;;;7.39;89.54
76853;BME280;65825;52.232;10.566;2023-02-18T06:17:12;100727.69;;;7.57;87.23
76853;BME280;65825;52.232;10.566;2023-02-18T06:19:37;100722.31;;;7.61;87.99
76853;BME280;65825;52.232;10.566;2023-02-18T06:22:03;100726.09;;;7.48;88.35
76853;BME280;65825;52.232;10.566;2023-02-18T06:24:29;100713.94;;;7.43;89.52
76853;BME280;65825;52.232;10.566;2023-02-18T06:26:54;100720.19;;;7.36;89.77
76853;BME280;65825;52.232;10.566;2023-02-18T06:29:19;100715.94;;;7.29;89.58
76853;BME280;65825;52.232;10.566;2023-02-18T06:31:45;100715.00;;;7.33;89.80
76853;BME280;65825;52.232;10.566;2023-02-18T06:34:10;100717.09;;;7.60;87.71
76853;BME280;65825;52.232;10.566;2023-02-18T06:36:35;100729.53;;;7.50;88.58
76853;BME280;65825;52.232;10.566;2023-02-18T06:39:03;100713.50;;;7.65;87.91
76853;BME280;65825;52.232;10.566;2023-02-18T06:41:28;100710.81;;;7.68;88.13
76853;BME280;65825;52.232;10.566;2023-02-18T06:43:54;100696.84;;;7.65;87.88
76853;BME280;65825;52.232;10.566;2023-02-18T06:46:19;100685.53;;;7.63;87.82
76853;BME280;65825;52.232;10.566;2023-02-18T06:48:45;100684.41;;;7.76;87.90
76853;BME280;65825;52.232;10.566;2023-02-18T06:51:10;100679.72;;;7.88;86.70
76853;BME280;65825;52.232;10.566;2023-02-18T06:53:35;100674.66;;;7.81;87.16
76853;BME280;65825;52.232;10.566;2023-02-18T06:56:00;100675.41;;;7.86;87.23
76853;BME280;65825;52.232;10.566;2023-02-18T06:58:26;100661.44;;;7.84;87.55
76853;BME280;65825;52.232;10.566;2023-02-18T07:00:51;100654.47;;;7.83;87.25
76853;BME280;65825;52.232;10.566;2023-02-18T07:03:16;100660.81;;;7.71;87.78
76853;BME280;65825;52.232;10.566;2023-02-18T07:05:42;100650.88;;;7.87;86.87
76853;BME280;65825;52.232;10.566;2023-02-18T07:08:07;100641.16;;;7.49;89.28
76853;BME280;65825;52.232;10.566;2023-02-18T07:10:32;100630.19;;;7.72;88.25
76853;BME280;65825;52.232;10.566;2023-02-18T07:12:57;100634.28;;;7.83;87.01
76853;BME280;65825;52.232;10.566;2023-02-18T07:15:23;100626.81;;;7.64;88.87
76853;BME280;65825;52.232;10.566;2023-02-18T07:17:51;100622.22;;;7.75;87.70
76853;BME280;65825;52.232;10.566;2023-02-18T07:20:18;100615.97;;;7.39;89.63
76853;BME280;65825;52.232;10.566;2023-02-18T07:22:44;100619.88;;;7.61;89.42
76853;BME280;65825;52.232;10.566;2023-02-18T07:25:09;100612.53;;;7.78;88.42
76853;BME280;65825;52.232;10.566;2023-02-18T07:27:34;100607.47;;;7.69;89.78
76853;BME280;65825;52.232;10.566;2023-02-18T07:29:59;100596.03;;;7.72;89.44
76853;BME280;65825;52.232;10.566;2023-02-18T07:32:25;100590.75;;;7.72;90.56
76853;BME280;65825;52.232;10.566;2023-02-18T07:34:51;100584.31;;;7.85;89.76
76853;BME280;65825;52.232;10.566;2023-02-18T07:37:17;100578.38;;;7.78;90.39
76853;BME280;65825;52.232;10.566;2023-02-18T07:39:43;100577.97;;;7.95;89.99
76853;BME280;65825;52.232;10.566;2023-02-18T07:42:09;100579.66;;;7.97;90.46
76853;BME280;65825;52.232;10.566;2023-02-18T07:44:35;100581.09;;;8.12;89.85
76853;BME280;65825;52.232;10.566;2023-02-18T07:47:02;100581.34;;;8.00;90.77
76853;BME280;65825;52.232;10.566;2023-02-18T07:49:27;100573.31;;;8.06;90.88
76853;BME280;65825;52.232;10.566;2023-02-18T07:51:53;100566.00;;;8.20;90.27
76853;BME280;65825;52.232;10.566;2023-02-18T07:54:18;100569.06;;;8.38;89.14
76853;BME280;65825;52.232;10.566;2023-02-18T07:56:44;100562.69;;;8.47;88.50
76853;BME280;65825;52.232;10.566;2023-02-18T07:59:11;100559.06;;;8.52;88.62
76853;BME280;65825;52.232;10.566;2023-02-18T08:01:37;100561.53;;;8.58;88.59
76853;BME280;65825;52.232;10.566;2023-02-18T08:04:02;100555.41;;;8.58;88.38
76853;BME280;65825;52.232;10.566;2023-02-18T08:06:33;100544.66;;;8.67;88.15
76853;BME280;65825;52.232;10.566;2023-02-18T08:08:59;100540.69;;;8.83;87.04
76853;BME280;65825;52.232;10.566;2023-02-18T08:11:24;100535.06;;;8.64;88.22
76853;BME280;65825;52.232;10.566;2023-02-18T08:13:49;100518.00;;;8.79;87.64
76853;BME280;65825;52.232;10.566;2023-02-18T08:16:16;100512.78;;;8.77;88.15
76853;BME280;65825;52.232;10.566;2023-02-18T08:18:43;100516.69;;;8.63;89.76
76853;BME280;65825;52.232;10.566;2023-02-18T08:21:09;100509.75;;;8.92;87.77
76853;BME280;65825;52.232;10.566;2023-02-18T08:23:34;100500.06;;;8.93;87.89
76853;BME280;65825;52.232;10.566;2023-02-18T08:25:59;100503.84;;;8.83;88.86
76853;BME280;65825;52.232;10.566;2023-02-18T08:28:25;100502.78;;;8.90;89.21
76853;BME280;65825;52.232;10.566;2023-02-18T08:30:52;100493.94;;;8.92;88.53
76853;BME280;65825;52.232;10.566;2023-02-18T08:33:18;100496.41;;;8.98;88.64
76853;BME280;65825;52.232;10.566;2023-02-18T08:35:48;100484.19;;;8.96;89.40
76853;BME280;65825;52.232;10.566;2023-02-18T08:38:13;100485.50;;;9.10;89.25
76853;BME280;65825;52.232;10.566;2023-02-18T08:40:39;100482.88;;;9.10;89.71
76853;BME280;65825;52.232;10.566;2023-02-18T08:43:05;100482.28;;;9.01;90.93
76853;BME280;65825;52.232;10.566;2023-02-18T08:45:30;100484.00;;;9.02;91.84
76853;BME280;65825;52.232;10.566;2023-02-18T08:47:56;100472.34;;;9.10;92.34
76853;BME280;65825;52.232;10.566;2023-02-18T08:50:21;100475.31;;;9.29;91.50
76853;BME280;65825;52.232;10.566;2023-02-18T08:52:50;100470.00;;;9.30;92.50
76853;BME280;65825;52.232;10.566;2023-02-18T08:55:16;100465.06;;;9.47;92.48
76853;BME280;65825;52.232;10.566;2023-02-18T08:57:44;100466.56;;;9.56;92.31
76853;BME280;65825;52.232;10.566;2023-02-18T09:00:10;100461.53;;;9.48;93.08
76853;BME280;65825;52.232;10.566;2023-02-18T09:02:36;100452.56;;;9.54;93.02
76853;BME280;65825;52.232;10.566;2023-02-18T09:05:01;100448.19;;;9.54;92.85
76853;BME280;65825;52.232;10.566;2023-02-18T09:07:26;100436.91;;;9.49;93.61
76853;BME280;65825;52.232;10.566;2023-02-18T09:09:51;100436.19;;;9.44;93.80
76853;BME280;65825;52.232;10.566;2023-02-18T09:12:17;100440.50;;;9.47;93.92
76853;BME280;65825;52.232;10.566;2023-02-18T09:14:42;100446.09;;;9.64;93.41
76853;BME280;65825;52.232;10.566;2023-02-18T09:17:07;100436.28;;;9.69;92.98
76853;BME280;65825;52.232;10.566;2023-02-18T09:19:32;100430.25;;;9.65;93.10
76853;BME280;65825;52.232;10.566;2023-02-18T09:21:58;100435.88;;;9.81;92.90
76853;BME280;65825;52.232;10.566;2023-02-18T09:24:23;100427.38;;;9.73;92.99
76853;BME280;65825;52.232;10.566;2023-02-18T09:26:49;100430.78;;;9.76;93.12
76853;BME280;65825;52.232;10.566;2023-02-18T09:29:14;100426.22;;;9.81;93.19
76853;BME280;65825;52.232;10.566;2023-02-18T09:31:40;100432.88;;;9.93;92.16
76853;BME280;65825;52.232;10.566;2023-02-18T09:34:05;100415.91;;;10.00;91.77
76853;BME280;65825;52.232;10.566;2023-02-18T09:36:32;100416.34;;;10.14;91.32
76853;BME280;65825;52.232;10.566;2023-02-18T09:38:57;100410.66;;;10.26;91.12
76853;BME280;65825;52.232;10.566;2023-02-18T09:44:02;100399.13;;;10.53;89.19
76853;BME280;65825;52.232;10.566;2023-02-18T09:46:34;100391.25;;;10.51;88.41
76853;BME280;65825;52.232;10.566;2023-02-18T09:49:02;100390.13;;;10.58;88.08
76853;BME280;65825;52.232;10.566;2023-02-18T09:51:29;100381.00;;;10.67;86.72
76853;BME280;65825;52.232;10.566;2023-02-18T09:53:54;100384.22;;;10.75;86.69
76853;BME280;65825;52.232;10.566;2023-02-18T09:56:28;100384.28;;;10.73;86.86
76853;BME280;65825;52.232;10.566;2023-02-18T09:58:57;100389.94;;;10.86;85.86
76853;BME280;65825;52.232;10.566;2023-02-18T10:01:26;100381.44;;;11.01;86.27
76853;BME280;65825;52.232;10.566;2023-02-18T10:03:57;100365.75;;;10.98;85.14
76853;BME280;65825;52.232;10.566;2023-02-18T10:06:27;100401.19;;;10.91;84.95
76853;BME280;65825;52.232;10.566;2023-02-18T10:08:54;100378.13;;;10.96;85.28
76853;BME280;65825;52.232;10.566;2023-02-18T10:11:32;100382.63;;;10.94;85.16
76853;BME280;65825;52.232;10.566;2023-02-18T10:14:01;100376.25;;;10.99;84.30
76853;BME280;65825;52.232;10.566;2023-02-18T10:16:27;100365.50;;;11.04;85.64
76853;BME280;65825;52.232;10.566;2023-02-18T10:18:55;100375.78;;;11.11;84.86
76853;BME280;65825;52.232;10.566;2023-02-18T10:21:24;100370.88;;;11.01;85.40
76853;BME280;65825;52.232;10.566;2023-02-18T10:24:04;100382.31;;;11.01;84.47
76853;BME280;65825;52.232;10.566;2023-02-18T10:26:33;100364.03;;;10.97;84.54
76853;BME280;65825;52.232;10.566;2023-02-18T10:29:00;100364.22;;;10.91;83.51
76853;BME280;65825;52.232;10.566;2023-02-18T10:31:53;100368.44;;;10.96;84.21
76853;BME280;65825;52.232;10.566;2023-02-18T10:34:29;100371.06;;;10.96;83.88
76853;BME280;65825;52.232;10.566;2023-02-18T10:37:22;100354.00;;;11.05;83.18
76853;BME280;65825;52.232;10.566;2023-02-18T10:49:03;100351.78;;;10.94;82.68
76853;BME280;65825;52.232;10.566;2023-02-18T10:51:36;100352.41;;;11.01;83.12
76853;BME280;65825;52.232;10.566;2023-02-18T10:54:05;100342.34;;;11.10;82.39
76853;BME280;65825;52.232;10.566;2023-02-18T10:56:40;100341.38;;;11.13;82.25
76853;BME280;65825;52.232;10.566;2023-02-18T10:59:13;100343.13;;;11.12;81.75
76853;BME280;65825;52.232;10.566;2023-02-18T11:01:40;100328.16;;;11.13;81.37
76853;BME280;65825;52.232;10.566;2023-02-18T11:04:17;100332.47;;;11.15;80.41
76853;BME280;65825;52.232;10.566;2023-02-18T11:06:49;100332.75;;;11.29;80.43
76853;BME280;65825;52.232;10.566;2023-02-18T11:09:29;100324.03;;;11.27;80.35
76853;BME280;65825;52.232;10.566;2023-02-18T11:12:21;100324.81;;;11.29;80.29
76853;BME280;65825;52.232;10.566;2023-02-18T11:15:04;100326.69;;;11.27;79.87
76853;BME280;65825;52.232;10.566;2023-02-18T11:17:30;100328.59;;;11.24;80.04
76853;BME280;65825;52.232;10.566;2023-02-18T11:19:58;100323.56;;;11.18;80.09
76853;BME280;65825;52.232;10.566;2023-02-18T11:22:34;100328.72;;;10.99;80.72
76853;BME280;65825;52.232;10.566;2023-02-18T11:25:05;100318.06;;;11.01;81.49
76853;BME280;65825;52.232;10.566;2023-02-18T11:27:50;100325.28;;;10.96;80.90
76853;BME280;65825;52.232;10.566;2023-02-18T11:30:45;100309.91;;;11.07;81.01
76853;BME280;65825;52.232;10.566;2023-02-18T11:33:18;100317.31;;;10.97;80.73
76853;BME280;65825;52.232;10.566;2023-02-18T11:35:49;100318.44;;;10.92;81.21
76853;BME280;65825;52.232;10.566;2023-02-18T11:38:28;100309.94;;;10.84;81.32
76853;BME280;65825;52.232;10.566;2023-02-18T11:41:06;100325.84;;;10.82;81.76
76853;BME280;65825;52.232;10.566;2023-02-18T11:43:33;100319.72;;;10.82;84.39
76853;BME280;65825;52.232;10.566;2023-02-18T11:46:15;100342.56;;;10.83;83.65
76853;BME280;65825;52.232;10.566;2023-02-18T11:48:40;100320.38;;;10.64;83.11
76853;BME280;65825;52.232;10.566;2023-02-18T11:51:15;100314.47;;;10.57;85.70
76853;BME280;65825;52.232;10.566;2023-02-18T11:53:53;100319.19;;;10.49;86.40
76853;BME280;65825;52.232;10.566;2023-02-18T11:56:19;100337.19;;;10.38;86.21
76853;BME280;65825;52.232;10.566;2023-02-18T11:58:47;100331.97;;;10.37;85.47
76853;BME280;65825;52.232;10.566;2023-02-18T12:01:27;100331.19;;;10.35;85.56
76853;BME280;65825;52.232;10.566;2023-02-18T12:04:00;100308.03;;;10.41;84.62
76853;BME280;65825;52.232;10.566;2023-02-18T12:06:34;100310.66;;;10.66;82.26
76853;BME280;65825;52.232;10.566;2023-02-18T12:09:18;100310.97;;;10.80;81.21
76853;BME280;65825;52.232;10.566;2023-02-18T12:11:51;100303.44;;;10.92;80.70
76853;BME280;65825;52.232;10.566;2023-02-18T12:14:19;100306.47;;;10.83;80.49
76853;BME280;65825;52.232;10.566;2023-02-18T12:20:00;100295.38;;;10.74;80.43
76853;BME280;65825;52.232;10.566;2023-02-18T12:22:44;100319.81;;;11.02;79.45
76853;BME280;65825;52.232;10.566;2023-02-18T12:25:38;100297.06;;;10.98;79.63
76853;BME280;65825;52.232;10.566;2023-02-18T12:31:11;100294.28;;;10.79;80.12
76853;BME280;65825;52.232;10.566;2023-02-18T12:33:50;100282.56;;;11.08;80.55
76853;BME280;65825;52.232;10.566;2023-02-18T12:41:52;100306.94;;;10.93;81.07
76853;BME280;65825;52.232;10.566;2023-02-18T12:44:35;100313.44;;;10.61;81.78
76853;BME280;65825;52.232;10.566;2023-02-18T12:47:35;100308.53;;;10.52;82.38
76853;BME280;65825;52.232;10.566;2023-02-18T13:05:50;100318.59;;;10.41;83.87
76853;BME280;65825;52.232;10.566;2023-02-18T13:09:01;100319.56;;;10.16;84.91
76853;BME280;65825;52.232;10.566;2023-02-18T13:14:13;100327.41;;;9.93;85.92
76853;BME280;65825;52.232;10.566;2023-02-18T13:16:43;100327.28;;;9.96;85.45
76853;BME280;65825;52.232;10.566;2023-02-18T13:19:22;100328.25;;;9.93;85.27
76853;BME280;65825;52.232;10.566;2023-02-18T13:21:52;100325.50;;;9.96;84.67
76853;BME280;65825;52.232;10.566;2023-02-18T13:24:39;100325.72;;;10.16;83.31
76853;BME280;65825;52.232;10.566;2023-02-18T13:27:12;100332.34;;;10.26;83.26
76853;BME280;65825;52.232;10.566;2023-02-18T13:29:47;100334.19;;;10.24;82.77
76853;BME280;65825;52.232;10.566;2023-02-18T13:32:38;100323.81;;;10.20;83.82
76853;BME280;65825;52.232;10.566;2023-02-18T13:35:40;100322.09;;;10.19;84.08
76853;BME280;65825;52.232;10.566;2023-02-18T13:38:19;100336.31;;;10.15;84.57
76853;BME280;65825;52.232;10.566;2023-02-18T13:40:48;100335.22;;;10.20;84.66
76853;BME280;65825;52.232;10.566;2023-02-18T13:43:27;100342.34;;;10.18;84.16
76853;BME280;65825;52.232;10.566;2023-02-18T13:46:22;100343.94;;;10.22;83.64
76853;BME280;65825;52.232;10.566;2023-02-18T13:48:53;100352.09;;;10.16;84.41
76853;BME280;65825;52.232;10.566;2023-02-18T13:51:32;100338.19;;;10.11;84.38
76853;BME280;65825;52.232;10.566;2023-02-18T13:54:19;100346.16;;;10.10;83.68
76853;BME280;65825;52.232;10.566;2023-02-18T13:56:57;100343.63;;;10.07;84.12
76853;BME280;65825;52.232;10.566;2023-02-18T13:59:46;100352.50;;;10.03;85.53
76853;BME280;65825;52.232;10.566;2023-02-18T14:09:58;100355.13;;;10.03;85.56
76853;BME280;65825;52.232;10.566;2023-02-18T14:14:58;100365.38;;;9.87;87.66
76853;BME280;65825;52.232;10.566;2023-02-18T14:17:36;100378.09;;;9.75;88.69
76853;BME280;65825;52.232;10.566;2023-02-18T14:22:43;100370.97;;;9.77;89.33
76853;BME280;65825;52.232;10.566;2023-02-18T14:27:37;100375.53;;;9.72;90.37
76853;BME280;65825;52.232;10.566;2023-02-18T14:30:16;100376.41;;;9.72;91.29
76853;BME280;65825;52.232;10.566;2023-02-18T14:32:43;100381.38;;;9.55;90.85
76853;BME280;65825;52.232;10.566;2023-02-18T14:35:27;100384.16;;;9.51;91.35